Time;durP1;ratioP1;P1;durP2;ratioP2;P2;SDS_P1;SDS_P2;PMS_P1;PMS_P2;Temp;Humidity;BMP_temperature;BMP_pressure;BME280_temperature;BME280_humidity;BME280_pressure;Samples;Min_cycle;Max_cycle;Signal;HPM_P1;HPM_P2
2022/12/23 00:01:17;;;;;;;7.88;4.03;;;;;;;;;;21248554;27;20043;-57
2022/12/23 00:11:19;;;;;;;5.97;3.30;;;;;;;;;;21248040;27;20176;-58
2022/12/23 00:21:22;;;;;;;5.90;3.17;;;;;;;;;;21248737;27;20055;-60
2022/12/23 00:31:25;;;;;;;6.43;4.00;;;;;;;;;;21248576;27;20480;-60
2022/12/23 00:51:47;;;;;;;6.05;3.80;;;;;;;;;;21264005;27;20241;-58
2022/12/23 01:12:11;;;;;;;7.45;3.72;;;;;;;;;;21261369;27;20077;-58
2022/12/23 01:22:14;;;;;;;9.00;4.07;;;;;;;;;;21261220;27;20050;-58
2022/12/23 01:32:16;;;;;;;5.18;3.47;;;;;;;;;;21260248;27;20051;-58
2022/12/23 01:52:50;;;;;;;5.68;3.28;;;;;;;;;;21259816;27;20103;-59
2022/12/23 02:13:19;;;;;;;5.07;3.08;;;;;;;;;;21172409;28;20047;-59
2022/12/23 02:23:41;;;;;;;4.65;2.40;;;;;;;;;;21171835;28;20050;-59
2022/12/23 02:33:51;;;;;;;5.07;2.88;;;;;;;;;;21170960;28;20087;-58
2022/12/23 02:44:01;;;;;;;5.47;2.50;;;;;;;;;;21169323;28;20052;-59
2022/12/23 02:54:07;;;;;;;6.93;3.43;;;;;;;;;;21168935;28;20051;-60
2022/12/23 03:04:12;;;;;;;5.45;3.05;;;;;;;;;;21167134;28;20047;-60
2022/12/23 03:14:29;;;;;;;8.70;4.28;;;;;;;;;;21166940;28;20073;-62
2022/12/23 03:24:36;;;;;;;5.32;2.97;;;;;;;;;;21166661;28;20073;-58
2022/12/23 03:34:42;;;;;;;7.10;4.70;;;;;;;;;;21166278;28;20483;-63
2022/12/23 03:44:48;;;;;;;3.63;2.30;;;;;;;;;;21164047;28;20051;-59
2022/12/23 03:54:56;;;;;;;4.00;1.95;;;;;;;;;;21162998;28;20059;-64
2022/12/23 04:05:17;;;;;;;2.40;1.60;;;;;;;;;;21164986;28;20123;-58
2022/12/23 04:15:26;;;;;;;3.50;1.70;;;;;;;;;;21145025;28;20093;-59
2022/12/23 04:25:30;;;;;;;5.00;2.65;;;;;;;;;;21163467;28;20048;-58
2022/12/23 04:35:33;;;;;;;11.25;4.03;;;;;;;;;;21161725;28;20101;-58
2022/12/23 04:45:35;;;;;;;5.80;1.70;;;;;;;;;;21161413;28;20080;-58
2022/12/23 04:55:38;;;;;;;3.30;1.08;;;;;;;;;;21161426;28;20059;-60
2022/12/23 05:05:43;;;;;;;1.73;0.80;;;;;;;;;;21161523;28;20046;-58
2022/12/23 05:15:46;;;;;;;4.38;1.10;;;;;;;;;;21160554;28;20051;-60
2022/12/23 05:25:53;;;;;;;2.67;1.25;;;;;;;;;;21163792;28;20077;-60
2022/12/23 05:35:59;;;;;;;4.28;1.10;;;;;;;;;;21175544;28;20130;-61
2022/12/23 05:46:03;;;;;;;1.90;0.88;;;;;;;;;;21174860;28;20403;-58
2022/12/23 05:56:06;;;;;;;1.30;0.88;;;;;;;;;;21173333;28;20060;-59
2022/12/23 06:06:10;;;;;;;1.67;0.90;;;;;;;;;;21172561;28;20051;-58
2022/12/23 06:16:26;;;;;;;2.28;1.08;;;;;;;;;;21172143;28;20117;-58
2022/12/23 06:26:38;;;;;;;3.25;1.15;;;;;;;;;;21171831;28;20429;-58
2022/12/23 06:37:00;;;;;;;5.88;2.88;;;;;;;;;;21168734;28;20047;-57
2022/12/23 06:47:16;;;;;;;4.25;1.33;;;;;;;;;;21168890;28;20047;-57
2022/12/23 06:57:20;;;;;;;5.72;2.03;;;;;;;;;;21168415;28;20052;-58
2022/12/23 07:07:23;;;;;;;2.13;0.88;;;;;;;;;;21168238;28;20296;-63
2022/12/23 07:17:26;;;;;;;3.65;0.95;;;;;;;;;;21167432;28;20055;-63
2022/12/23 07:27:29;;;;;;;4.57;2.38;;;;;;;;;;21166129;28;20415;-58
2022/12/23 07:37:31;;;;;;;1.63;0.80;;;;;;;;;;21165443;28;20055;-59
2022/12/23 07:47:34;;;;;;;1.05;0.60;;;;;;;;;;21164869;28;20121;-61
2022/12/23 07:57:39;;;;;;;4.20;0.90;;;;;;;;;;21163551;28;20163;-57
2022/12/23 08:07:43;;;;;;;1.83;0.77;;;;;;;;;;21163621;28;20051;-58
2022/12/23 08:17:46;;;;;;;1.77;1.00;;;;;;;;;;21162425;28;20158;-60
2022/12/23 08:27:50;;;;;;;1.30;0.80;;;;;;;;;;21160906;28;20138;-58
2022/12/23 08:37:52;;;;;;;2.85;1.65;;;;;;;;;;21162579;28;20052;-58
2022/12/23 08:47:55;;;;;;;3.88;1.80;;;;;;;;;;21161268;28;20100;-58
2022/12/23 08:57:57;;;;;;;6.10;1.98;;;;;;;;;;21161801;28;20094;-61
2022/12/23 09:08:00;;;;;;;3.08;1.70;;;;;;;;;;21176601;28;20130;-63
2022/12/23 09:18:02;;;;;;;5.13;3.75;;;;;;;;;;21159112;28;20046;-58
2022/12/23 09:28:06;;;;;;;6.35;3.72;;;;;;;;;;21177152;28;20160;-59
2022/12/23 09:38:08;;;;;;;4.72;1.88;;;;;;;;;;21174598;28;20101;-57
2022/12/23 09:48:16;;;;;;;1.85;1.00;;;;;;;;;;21175168;28;20054;-59
2022/12/23 09:58:26;;;;;;;2.85;1.23;;;;;;;;;;21173768;28;20131;-59
2022/12/23 10:08:42;;;;;;;3.30;1.00;;;;;;;;;;21172753;28;20098;-57
2022/12/23 10:19:00;;;;;;;5.85;2.38;;;;;;;;;;21171020;28;20047;-58
2022/12/23 10:29:12;;;;;;;1.35;0.90;;;;;;;;;;21171493;28;20161;-58
2022/12/23 10:39:24;;;;;;;2.97;0.93;;;;;;;;;;21170155;28;20555;-58
2022/12/23 10:49:45;;;;;;;5.68;1.27;;;;;;;;;;21170410;28;20135;-59
2022/12/23 10:59:49;;;;;;;2.08;0.95;;;;;;;;;;21169458;28;20058;-60
2022/12/23 11:09:56;;;;;;;2.95;0.80;;;;;;;;;;21168278;28;20051;-59
2022/12/23 11:20:07;;;;;;;4.05;1.85;;;;;;;;;;21167738;28;20051;-60
2022/12/23 11:30:16;;;;;;;0.98;0.60;;;;;;;;;;21166441;28;20056;-58
2022/12/23 11:40:19;;;;;;;;;;;;;;;;;;21147256;28;20047;-59
2022/12/23 11:50:29;;;;;;;1.30;0.60;;;;;;;;;;21164819;28;19919;-59
2022/12/23 12:00:34;;;;;;;1.55;0.60;;;;;;;;;;21153407;28;20551;-66
2022/12/23 12:10:36;;;;;;;1.13;0.40;;;;;;;;;;21226082;27;20502;-64
2022/12/23 12:20:47;;;;;;;3.90;2.42;;;;;;;;;;21249104;27;20410;-67
2022/12/23 12:30:57;;;;;;;1.52;0.98;;;;;;;;;;21278638;27;20050;-65
2022/12/23 12:41:08;;;;;;;1.35;0.88;;;;;;;;;;21262381;27;20075;-69
2022/12/23 12:51:30;;;;;;;3.45;1.90;;;;;;;;;;21250679;27;20053;-62
2022/12/23 13:01:53;;;;;;;4.53;2.17;;;;;;;;;;21245406;27;20455;-64
2022/12/23 13:12:04;;;;;;;3.30;1.55;;;;;;;;;;20868116;28;20049;-62
2022/12/23 13:22:12;;;;;;;3.80;2.17;;;;;;;;;;20890075;28;20056;-58
2022/12/23 13:32:19;;;;;;;2.42;1.45;;;;;;;;;;20819268;28;20502;-68
2022/12/23 13:42:26;;;;;;;1.33;0.65;;;;;;;;;;20960916;28;20043;-62
2022/12/23 13:52:33;;;;;;;2.78;1.10;;;;;;;;;;21256752;27;20051;-68
2022/12/23 14:02:35;;;;;;;2.20;1.10;;;;;;;;;;21260342;27;20491;-59
2022/12/23 14:12:40;;;;;;;1.25;0.73;;;;;;;;;;21258646;27;20047;-59
2022/12/23 14:22:44;;;;;;;2.13;1.00;;;;;;;;;;21257008;27;20175;-61
2022/12/23 14:32:50;;;;;;;3.10;0.80;;;;;;;;;;21255424;27;20047;-62
2022/12/23 14:43:11;;;;;;;1.80;0.70;;;;;;;;;;21255739;27;20075;-60
2022/12/23 14:53:21;;;;;;;3.28;1.15;;;;;;;;;;21255672;27;20051;-61
2022/12/23 15:03:23;;;;;;;2.85;0.95;;;;;;;;;;21252356;27;20075;-60
2022/12/23 15:13:27;;;;;;;1.88;1.08;;;;;;;;;;21254790;27;20054;-58
2022/12/23 15:23:30;;;;;;;2.22;1.02;;;;;;;;;;21252838;27;20065;-59
2022/12/23 15:33:34;;;;;;;2.30;1.35;;;;;;;;;;21253004;27;20486;-59
2022/12/23 15:43:40;;;;;;;6.05;1.25;;;;;;;;;;21252686;27;20075;-59
2022/12/23 15:53:44;;;;;;;3.78;1.50;;;;;;;;;;21250716;27;20047;-65
2022/12/23 16:03:52;;;;;;;4.13;2.00;;;;;;;;;;21249955;27;20051;-60
2022/12/23 16:13:54;;;;;;;3.63;1.77;;;;;;;;;;21250303;27;20472;-68
2022/12/23 16:23:57;;;;;;;3.17;1.88;;;;;;;;;;21248549;27;20047;-60
2022/12/23 16:34:00;;;;;;;4.43;2.30;;;;;;;;;;21248525;27;20055;-60
2022/12/23 16:44:02;;;;;;;7.25;3.40;;;;;;;;;;21247841;27;20380;-60
2022/12/23 16:54:04;;;;;;;4.68;2.28;;;;;;;;;;21247899;27;20051;-59
2022/12/23 17:04:07;;;;;;;2.80;1.70;;;;;;;;;;21245445;28;20062;-59
2022/12/23 17:14:14;;;;;;;4.03;2.20;;;;;;;;;;21246662;27;20043;-60
2022/12/23 17:24:21;;;;;;;6.68;3.38;;;;;;;;;;21252799;27;20057;-65
2022/12/23 17:34:24;;;;;;;6.57;2.90;;;;;;;;;;21260573;27;20047;-60
2022/12/23 17:44:26;;;;;;;8.82;4.20;;;;;;;;;;21260146;27;20053;-59
2022/12/23 17:54:28;;;;;;;4.70;2.70;;;;;;;;;;21259812;27;20054;-61
2022/12/23 18:04:30;;;;;;;7.25;2.78;;;;;;;;;;21259037;27;20086;-66
2022/12/23 18:14:32;;;;;;;4.00;2.20;;;;;;;;;;21258567;27;20119;-66
2022/12/23 18:24:34;;;;;;;6.07;2.70;;;;;;;;;;21259144;27;20491;-67
2022/12/23 18:34:37;;;;;;;4.95;2.45;;;;;;;;;;21254273;27;20438;-63
2022/12/23 18:44:39;;;;;;;9.52;4.20;;;;;;;;;;21260276;27;20047;-60
2022/12/23 18:54:41;;;;;;;6.47;3.80;;;;;;;;;;21254022;27;20442;-68
2022/12/23 19:04:43;;;;;;;7.28;4.95;;;;;;;;;;21254568;27;20051;-67
2022/12/23 19:14:45;;;;;;;7.97;3.85;;;;;;;;;;21253335;27;20051;-69
2022/12/23 19:24:47;;;;;;;6.10;3.83;;;;;;;;;;21253983;27;20441;-63
2022/12/23 19:34:49;;;;;;;7.32;4.40;;;;;;;;;;21252109;27;20547;-61
2022/12/23 19:44:51;;;;;;;9.45;4.10;;;;;;;;;;21250738;27;20043;-61
2022/12/23 19:54:53;;;;;;;16.73;8.63;;;;;;;;;;21249505;27;20043;-60
2022/12/23 20:04:55;;;;;;;10.55;5.05;;;;;;;;;;21247215;27;20043;-60
2022/12/23 20:14:58;;;;;;;9.80;5.10;;;;;;;;;;21247773;27;20542;-61
2022/12/23 20:25:00;;;;;;;10.68;5.88;;;;;;;;;;21247845;27;20043;-61
2022/12/23 20:35:03;;;;;;;9.48;4.78;;;;;;;;;;21247730;27;20051;-63
2022/12/23 20:45:06;;;;;;;11.10;4.97;;;;;;;;;;21246915;27;20047;-60
2022/12/23 20:55:08;;;;;;;8.43;4.40;;;;;;;;;;21245928;27;20047;-62
2022/12/23 21:05:11;;;;;;;9.63;4.68;;;;;;;;;;21263542;27;20038;-68
2022/12/23 21:15:13;;;;;;;9.25;4.30;;;;;;;;;;21262930;27;20062;-64
2022/12/23 21:25:16;;;;;;;7.90;4.53;;;;;;;;;;21263084;27;20448;-67
2022/12/23 21:35:19;;;;;;;9.07;4.82;;;;;;;;;;21260835;27;20051;-62
2022/12/23 21:45:21;;;;;;;9.38;4.50;;;;;;;;;;21260048;27;20498;-61
2022/12/23 21:55:23;;;;;;;8.65;4.45;;;;;;;;;;21261286;27;20055;-61
2022/12/23 22:05:25;;;;;;;8.10;5.00;;;;;;;;;;21258437;27;20043;-61
2022/12/23 22:15:27;;;;;;;12.43;5.78;;;;;;;;;;21258024;27;20089;-60
2022/12/23 22:25:29;;;;;;;9.82;5.38;;;;;;;;;;21257390;27;20055;-61
2022/12/23 22:35:32;;;;;;;10.40;5.45;;;;;;;;;;21255477;27;20547;-60
2022/12/23 22:45:34;;;;;;;9.60;5.88;;;;;;;;;;21255927;27;20054;-59
2022/12/23 22:55:36;;;;;;;16.58;7.00;;;;;;;;;;21255796;27;20614;-64
2022/12/23 23:05:38;;;;;;;12.63;5.82;;;;;;;;;;21253788;27;20470;-69
2022/12/23 23:15:43;;;;;;;12.90;5.97;;;;;;;;;;21254535;27;20062;-70
2022/12/23 23:25:46;;;;;;;14.60;5.28;;;;;;;;;;21252024;27;20070;-60
2022/12/23 23:35:54;;;;;;;13.15;5.45;;;;;;;;;;21253091;27;20107;-60
2022/12/23 23:45:57;;;;;;;13.37;6.63;;;;;;;;;;21250916;27;20092;-58
2022/12/23 23:56:03;;;;;;;11.77;6.25;;;;;;;;;;21251106;27;20363;-67
